createdAt,value
2023-03-05T00:01:24.333Z,26.50
2023-03-05T00:03:54.132Z,25.70
2023-03-05T00:06:24.292Z,28.20
2023-03-05T00:08:53.502Z,29.70
2023-03-05T00:11:21.132Z,25.20
2023-03-05T00:13:49.187Z,27.00
2023-03-05T00:16:16.443Z,30.40
2023-03-05T00:18:43.874Z,25.00
2023-03-05T00:21:27.575Z,28.60
2023-03-05T00:23:55.842Z,29.30
2023-03-05T00:26:25.860Z,26.40
2023-03-05T00:28:54.852Z,28.20
2023-03-05T00:31:25.776Z,30.00
2023-03-05T00:33:55.850Z,28.00
2023-03-05T00:36:22.633Z,28.90
2023-03-05T00:38:49.239Z,30.10
2023-03-05T00:41:16.330Z,27.70
2023-03-05T00:43:43.649Z,26.70
2023-03-05T00:46:10.434Z,30.10
2023-03-05T00:48:37.111Z,28.50
2023-03-05T00:51:04.048Z,26.10
2023-03-05T00:53:31.067Z,28.70
2023-03-05T00:55:58.810Z,30.60
2023-03-05T00:58:25.607Z,27.40
2023-03-05T01:00:52.330Z,27.70
2023-03-05T01:03:19.840Z,31.20
2023-03-05T01:05:46.519Z,29.40
2023-03-05T01:08:13.136Z,32.00
2023-03-05T01:10:39.761Z,28.20
2023-03-05T01:13:06.724Z,28.20
2023-03-05T01:15:33.449Z,29.00
2023-03-05T01:18:00.346Z,30.70
2023-03-05T01:20:26.973Z,25.00
2023-03-05T01:22:53.981Z,27.50
2023-03-05T01:25:20.854Z,28.50
2023-03-05T01:27:47.484Z,29.50
2023-03-05T01:30:15.855Z,32.30
2023-03-05T01:32:43.141Z,26.90
2023-03-05T01:35:18.429Z,25.80
2023-03-05T01:37:45.348Z,30.40
2023-03-05T01:40:17.379Z,28.70
2023-03-05T01:42:49.345Z,27.60
2023-03-05T01:45:19.589Z,26.10
2023-03-05T01:47:46.221Z,28.60
2023-03-05T01:50:23.485Z,26.60
2023-03-05T01:52:59.755Z,25.90
2023-03-05T01:55:29.860Z,25.20
2023-03-05T01:58:03.767Z,27.90
2023-03-05T02:00:52.997Z,27.00
2023-03-05T02:03:20.735Z,27.90
2023-03-05T02:05:47.435Z,25.00
2023-03-05T02:08:19.619Z,27.50
2023-03-05T02:10:53.508Z,27.20
2023-03-05T02:13:26.923Z,28.30
2023-03-05T02:15:56.339Z,28.70
2023-03-05T02:18:23.460Z,25.20
2023-03-05T02:20:59.922Z,26.50
2023-03-05T02:23:36.474Z,25.50
2023-03-05T02:26:06.921Z,28.40
2023-03-05T02:28:52.413Z,31.90
2023-03-05T02:31:22.489Z,28.20
2023-03-05T02:33:50.913Z,25.90
2023-03-05T02:36:18.983Z,28.40
2023-03-05T02:38:46.529Z,28.80
2023-03-05T02:41:15.046Z,25.90
2023-03-05T02:43:42.202Z,29.10
2023-03-05T02:46:09.219Z,28.60
2023-03-05T02:48:35.881Z,28.00
2023-03-05T02:51:03.804Z,28.10
2023-03-05T02:53:30.544Z,32.70
2023-03-05T02:55:57.252Z,25.20
2023-03-05T02:58:23.906Z,27.60
2023-03-05T03:00:50.945Z,26.80
2023-03-05T03:03:17.806Z,24.50
2023-03-05T03:05:44.568Z,26.30
2023-03-05T03:08:11.429Z,27.70
2023-03-05T03:10:38.582Z,27.60
2023-03-05T03:13:05.272Z,27.30
2023-03-05T03:15:32.158Z,26.60
2023-03-05T03:17:58.750Z,25.80
2023-03-05T03:20:27.312Z,25.80
2023-03-05T03:22:53.883Z,26.50
2023-03-05T03:25:23.259Z,27.00
2023-03-05T03:27:52.122Z,24.40
2023-03-05T03:30:19.171Z,29.20
2023-03-05T03:32:47.431Z,28.70
2023-03-05T03:35:14.117Z,29.90
2023-03-05T03:37:40.882Z,27.40
2023-03-05T03:40:08.868Z,28.80
2023-03-05T03:42:35.663Z,26.60
2023-03-05T03:45:02.599Z,31.70
2023-03-05T03:47:31.155Z,28.30
2023-03-05T03:49:59.055Z,28.20
2023-03-05T03:52:26.632Z,30.90
2023-03-05T03:54:55.720Z,28.90
2023-03-05T03:57:22.338Z,30.70
2023-03-05T03:59:50.387Z,28.00
2023-03-05T04:02:17.418Z,30.90
2023-03-05T04:04:44.124Z,31.20
2023-03-05T04:07:10.819Z,27.00
2023-03-05T04:09:37.520Z,29.50
2023-03-05T04:12:04.400Z,28.70
2023-03-05T04:14:31.000Z,27.50
2023-03-05T04:16:57.731Z,27.60
2023-03-05T04:19:24.343Z,27.60
2023-03-05T04:21:50.846Z,25.80
2023-03-05T04:24:17.459Z,26.60
2023-03-05T04:26:44.092Z,28.60
2023-03-05T04:29:10.899Z,26.70
2023-03-05T04:31:37.446Z,26.30
2023-03-05T04:34:04.043Z,28.80
2023-03-05T04:36:30.683Z,31.60
2023-03-05T04:38:57.325Z,29.20
2023-03-05T04:41:24.012Z,32.20
2023-03-05T04:43:50.622Z,25.50
2023-03-05T04:46:17.313Z,30.30
2023-03-05T04:48:43.994Z,30.90
2023-03-05T04:51:10.727Z,29.10
2023-03-05T04:53:37.248Z,28.70
2023-03-05T04:56:04.254Z,27.10
2023-03-05T04:58:30.877Z,28.50
2023-03-05T05:01:02.644Z,28.80
2023-03-05T05:03:29.454Z,31.10
2023-03-05T05:05:58.757Z,29.50
2023-03-05T05:08:26.130Z,26.90
2023-03-05T05:11:01.900Z,27.60
2023-03-05T05:13:29.003Z,32.40
2023-03-05T05:15:55.970Z,28.20
2023-03-05T05:18:23.801Z,28.70
2023-03-05T05:20:50.474Z,27.80
2023-03-05T05:23:17.731Z,28.30
2023-03-05T05:25:45.711Z,28.90
2023-03-05T05:28:12.675Z,29.90
2023-03-05T05:30:39.631Z,28.60
2023-03-05T05:33:06.287Z,28.90
2023-03-05T05:35:32.890Z,28.70
2023-03-05T05:37:59.479Z,28.40
2023-03-05T05:40:26.134Z,28.20
2023-03-05T05:42:52.753Z,31.40
2023-03-05T05:45:19.485Z,29.50
2023-03-05T05:47:46.136Z,31.10
2023-03-05T05:50:12.857Z,28.80
2023-03-05T05:52:39.439Z,27.10
2023-03-05T05:55:07.118Z,26.80
2023-03-05T05:57:35.385Z,30.00
2023-03-05T06:00:04.283Z,29.30
2023-03-05T06:02:40.469Z,26.20
2023-03-05T06:05:09.887Z,30.20
2023-03-05T06:07:36.493Z,27.40
2023-03-05T06:10:04.512Z,27.60
2023-03-05T06:12:31.055Z,30.70
2023-03-05T06:14:59.130Z,28.80
2023-03-05T06:17:30.693Z,27.50
2023-03-05T06:19:58.464Z,24.90
2023-03-05T06:22:25.299Z,27.90
2023-03-05T06:24:51.899Z,28.70
2023-03-05T06:27:18.719Z,29.50
2023-03-05T06:29:45.293Z,28.30
2023-03-05T06:32:12.081Z,25.30
2023-03-05T06:34:38.739Z,30.10
2023-03-05T06:37:05.440Z,27.60
2023-03-05T06:39:32.132Z,28.00
2023-03-05T06:41:58.760Z,27.90
2023-03-05T06:44:25.722Z,27.00
2023-03-05T06:46:52.501Z,27.40
2023-03-05T06:49:19.112Z,21.70
2023-03-05T06:51:45.773Z,29.40
2023-03-05T06:54:16.350Z,22.70
2023-03-05T06:56:46.426Z,26.60
2023-03-05T06:59:15.767Z,26.70
2023-03-05T07:01:44.546Z,27.50
2023-03-05T07:04:13.404Z,27.00
2023-03-05T07:06:42.311Z,22.30
2023-03-05T07:09:15.043Z,22.40
2023-03-05T07:11:41.916Z,27.10
2023-03-05T07:14:08.772Z,27.00
2023-03-05T07:16:35.722Z,27.70
2023-03-05T07:19:07.531Z,23.20
2023-03-05T07:21:37.437Z,26.40
2023-03-05T07:24:06.690Z,28.50
2023-03-05T07:26:33.905Z,24.50
2023-03-05T07:29:01.924Z,23.70
2023-03-05T07:31:33.136Z,26.10
2023-03-05T07:34:02.719Z,27.00
2023-03-05T07:36:30.616Z,26.00
2023-03-05T07:38:57.362Z,23.50
2023-03-05T07:41:24.164Z,26.40
2023-03-05T07:43:53.665Z,25.20
2023-03-05T07:46:25.506Z,26.40
2023-03-05T07:48:54.722Z,26.10
2023-03-05T07:51:23.218Z,23.70
2023-03-05T07:53:52.122Z,26.40
2023-03-05T07:56:37.087Z,26.00
2023-03-05T07:59:13.806Z,25.10
2023-03-05T08:01:41.002Z,26.30
2023-03-05T08:04:10.718Z,26.30
2023-03-05T08:06:42.207Z,24.20
2023-03-05T08:09:09.051Z,28.10
2023-03-05T08:11:35.691Z,23.10
2023-03-05T08:14:02.339Z,24.70
2023-03-05T08:16:29.035Z,27.20
2023-03-05T08:18:58.401Z,24.70
2023-03-05T08:21:29.786Z,22.20
2023-03-05T08:23:58.076Z,22.90
2023-03-05T08:26:28.406Z,24.50
2023-03-05T08:28:55.712Z,26.60
2023-03-05T08:31:25.592Z,26.00
2023-03-05T08:33:55.144Z,25.80
2023-03-05T08:36:22.297Z,25.30
2023-03-05T08:38:49.095Z,24.20
2023-03-05T08:41:17.783Z,27.80
2023-03-05T08:43:45.016Z,25.40
2023-03-05T08:46:13.547Z,24.80
2023-03-05T08:48:40.811Z,23.40
2023-03-05T08:51:15.019Z,25.90
2023-03-05T08:53:45.840Z,27.40
2023-03-05T08:56:13.284Z,26.30
2023-03-05T08:58:40.396Z,23.90
2023-03-05T09:01:07.338Z,24.30
2023-03-05T09:03:34.415Z,25.90
2023-03-05T09:06:05.327Z,26.50
2023-03-05T09:08:32.410Z,28.90
2023-03-05T09:11:02.109Z,25.30
2023-03-05T09:13:28.966Z,27.00
2023-03-05T09:15:58.080Z,25.60
2023-03-05T09:18:25.973Z,29.40
2023-03-05T09:20:53.240Z,27.20
2023-03-05T09:23:21.946Z,27.50
2023-03-05T09:25:49.602Z,24.00
2023-03-05T09:28:16.768Z,27.60
2023-03-05T09:30:43.386Z,26.30
2023-03-05T09:33:11.741Z,18.10
2023-03-05T09:35:38.389Z,24.70
2023-03-05T09:38:05.080Z,23.20
2023-03-05T09:40:59.068Z,25.80
2023-03-05T09:43:45.904Z,24.50
2023-03-05T09:46:46.634Z,14.60
2023-03-05T09:49:46.149Z,23.70
2023-03-05T09:52:45.343Z,20.00
2023-03-05T09:55:36.324Z,21.40
2023-03-05T09:58:38.794Z,25.00
2023-03-05T10:01:14.073Z,27.50
2023-03-05T10:03:51.354Z,29.90
2023-03-05T10:06:33.499Z,28.10
2023-03-05T10:09:14.574Z,28.00
2023-03-05T10:11:51.292Z,16.60
2023-03-05T10:14:41.434Z,21.00
2023-03-05T10:17:45.389Z,27.90
2023-03-05T10:20:35.356Z,24.50
2023-03-05T10:23:08.053Z,25.40
2023-03-05T10:26:32.547Z,21.90
2023-03-05T10:29:39.639Z,19.60
2023-03-05T10:32:30.105Z,27.00
2023-03-05T10:35:35.227Z,21.60
2023-03-05T10:38:35.340Z,24.50
2023-03-05T10:41:17.072Z,20.90
2023-03-05T10:44:01.909Z,23.90
2023-03-05T10:46:36.797Z,29.60
2023-03-05T10:49:32.917Z,23.40
2023-03-05T10:52:08.890Z,27.90
2023-03-05T10:54:37.634Z,28.20
2023-03-05T10:57:20.553Z,25.60
2023-03-05T11:00:05.418Z,24.10
2023-03-05T11:02:33.934Z,14.40
2023-03-05T11:05:00.700Z,20.90
2023-03-05T11:07:34.934Z,21.10
2023-03-05T11:10:23.329Z,22.00
2023-03-05T11:12:50.591Z,22.40
2023-03-05T11:15:17.108Z,21.80
2023-03-05T11:17:47.964Z,19.90
2023-03-05T11:20:26.692Z,27.00
2023-03-05T11:23:17.298Z,21.50
2023-03-05T11:26:08.340Z,24.90
2023-03-05T11:28:58.529Z,20.70
2023-03-05T11:31:32.552Z,25.10
2023-03-05T11:34:04.455Z,22.30
2023-03-05T11:36:41.123Z,24.10
2023-03-05T11:39:07.729Z,23.40
2023-03-05T11:41:40.323Z,21.80
2023-03-05T11:44:21.771Z,25.30
2023-03-05T11:46:54.802Z,21.60
2023-03-05T11:49:27.274Z,21.40
2023-03-05T11:52:10.745Z,25.20
2023-03-05T11:54:54.871Z,22.00
2023-03-05T11:57:24.357Z,24.10
2023-03-05T11:59:53.321Z,22.60
2023-03-05T12:02:26.025Z,17.40
2023-03-05T12:04:52.949Z,19.00
2023-03-05T12:07:34.947Z,18.70
2023-03-05T12:10:03.242Z,22.70
2023-03-05T12:12:32.262Z,20.50
2023-03-05T12:15:15.999Z,21.20
2023-03-05T12:18:19.671Z,22.80
2023-03-05T12:21:08.176Z,15.10
2023-03-05T12:23:50.317Z,18.80
2023-03-05T12:26:17.476Z,20.40
2023-03-05T12:28:46.980Z,20.30
2023-03-05T12:31:39.667Z,15.90
2023-03-05T12:34:43.034Z,16.90
2023-03-05T12:37:23.316Z,19.00
2023-03-05T12:40:08.836Z,20.70
2023-03-05T12:42:35.572Z,21.10
2023-03-05T12:45:16.982Z,14.40
2023-03-05T12:47:53.879Z,17.20
2023-03-05T12:50:29.575Z,17.90
2023-03-05T12:53:10.387Z,22.20
2023-03-05T12:56:00.824Z,22.20
2023-03-05T12:58:47.304Z,15.10
2023-03-05T13:01:30.135Z,21.00
2023-03-05T13:04:04.334Z,20.90
2023-03-05T13:06:34.934Z,15.90
2023-03-05T13:09:16.195Z,18.60
2023-03-05T13:11:47.915Z,17.10
2023-03-05T13:14:32.549Z,19.80
2023-03-05T13:17:00.871Z,18.10
2023-03-05T13:19:29.795Z,18.60
2023-03-05T13:22:03.764Z,19.30
2023-03-05T13:24:31.135Z,19.00
2023-03-05T13:26:57.764Z,15.30
2023-03-05T13:29:28.437Z,14.30
2023-03-05T13:32:14.995Z,18.70
2023-03-05T13:34:48.135Z,18.60
2023-03-05T13:37:19.238Z,17.90
2023-03-05T13:39:51.031Z,18.20
2023-03-05T13:42:26.282Z,17.30
2023-03-05T13:45:00.222Z,14.70
2023-03-05T13:47:33.563Z,14.20
2023-03-05T13:50:28.959Z,15.80
2023-03-05T13:55:57.259Z,14.90
2023-03-05T13:58:52.970Z,13.50
2023-03-05T14:01:32.853Z,18.10
2023-03-05T14:04:03.548Z,14.70
2023-03-05T14:06:31.070Z,16.50
2023-03-05T14:09:06.451Z,16.50
2023-03-05T14:11:34.606Z,15.10
2023-03-05T14:14:16.676Z,15.30
2023-03-05T14:16:43.476Z,15.00
2023-03-05T14:19:37.366Z,16.80
2023-03-05T14:22:06.016Z,18.30
2023-03-05T14:24:34.037Z,15.10
2023-03-05T14:27:08.715Z,13.10
2023-03-05T14:29:36.430Z,18.40
2023-03-05T14:32:07.673Z,16.30
2023-03-05T14:34:40.533Z,17.60
2023-03-05T14:37:25.669Z,16.60
2023-03-05T14:40:07.863Z,18.60
2023-03-05T14:42:50.796Z,19.00
2023-03-05T14:45:22.106Z,17.30
2023-03-05T14:47:51.862Z,18.50
2023-03-05T14:50:28.926Z,18.90
2023-03-05T14:53:04.193Z,17.80
2023-03-05T14:55:32.589Z,16.80
2023-03-05T14:58:17.082Z,16.90
2023-03-05T15:00:44.631Z,16.80
2023-03-05T15:03:14.003Z,16.60
2023-03-05T15:05:42.580Z,20.80
2023-03-05T15:08:26.309Z,18.50
2023-03-05T15:10:54.099Z,17.90
2023-03-05T15:13:21.604Z,18.30
2023-03-05T15:15:50.695Z,18.90
2023-03-05T15:18:21.853Z,18.80
2023-03-05T15:20:51.951Z,18.30
2023-03-05T15:23:19.524Z,16.90
2023-03-05T15:25:46.154Z,16.80
2023-03-05T15:28:15.015Z,18.70
2023-03-05T15:30:46.221Z,19.00
2023-03-05T15:33:16.563Z,18.90
2023-03-05T15:35:43.824Z,20.30
2023-03-05T15:38:10.557Z,15.80
2023-03-05T15:40:37.163Z,19.80
2023-03-05T15:43:03.964Z,19.80
2023-03-05T15:45:33.694Z,19.10
2023-03-05T15:48:00.306Z,17.90
2023-03-05T15:50:27.618Z,17.90
2023-03-05T15:52:54.180Z,14.60
2023-03-05T15:55:21.444Z,20.00
2023-03-05T15:57:51.328Z,19.30
2023-03-05T16:00:28.342Z,19.60
2023-03-05T16:02:55.067Z,18.90
2023-03-05T16:05:21.870Z,16.20
2023-03-05T16:07:51.966Z,19.40
2023-03-05T16:10:27.043Z,14.40
2023-03-05T16:13:00.917Z,13.70
2023-03-05T16:15:28.224Z,11.70
2023-03-05T16:17:57.240Z,14.20
2023-03-05T16:20:24.130Z,13.00
2023-03-05T16:22:50.817Z,11.80
2023-03-05T16:25:18.104Z,12.60
2023-03-05T16:27:45.072Z,11.50
2023-03-05T16:30:15.514Z,12.70
2023-03-05T16:32:42.868Z,10.50
2023-03-05T16:35:12.719Z,14.90
2023-03-05T16:37:41.269Z,11.10
2023-03-05T16:40:11.551Z,10.80
2023-03-05T16:42:38.361Z,14.50
2023-03-05T16:45:07.192Z,15.50
2023-03-05T16:47:33.907Z,12.60
2023-03-05T16:50:01.007Z,11.90
2023-03-05T16:52:28.706Z,13.90
2023-03-05T16:54:55.392Z,13.40
2023-03-05T16:57:24.062Z,11.70
2023-03-05T16:59:52.554Z,12.70
2023-03-05T17:02:19.192Z,14.80
2023-03-05T17:04:46.293Z,13.50
2023-03-05T17:07:13.032Z,13.00
2023-03-05T17:09:40.137Z,13.20
2023-03-05T17:12:07.165Z,13.90
2023-03-05T17:14:33.765Z,11.70
2023-03-05T17:17:01.464Z,13.50
2023-03-05T17:19:28.166Z,12.10
2023-03-05T17:21:54.778Z,12.80
2023-03-05T17:24:22.334Z,16.30
2023-03-05T17:26:50.136Z,14.30
2023-03-05T17:29:18.986Z,15.00
2023-03-05T17:31:46.812Z,12.60
2023-03-05T17:34:14.438Z,13.90
2023-03-05T17:36:41.218Z,13.50
2023-03-05T17:39:08.941Z,12.40
2023-03-05T17:41:35.984Z,13.70
2023-03-05T17:44:03.664Z,13.60
2023-03-05T17:46:30.510Z,14.40
2023-03-05T17:48:57.139Z,14.60
2023-03-05T17:51:23.706Z,11.90
2023-03-05T17:53:50.408Z,14.90
2023-03-05T17:56:17.381Z,14.50
2023-03-05T17:58:44.767Z,14.80
2023-03-05T18:01:11.518Z,15.00
2023-03-05T18:03:38.138Z,13.20
2023-03-05T18:06:05.329Z,12.30
2023-03-05T18:08:32.278Z,12.40
2023-03-05T18:10:59.416Z,10.10
2023-03-05T18:13:26.113Z,13.50
2023-03-05T18:15:52.717Z,14.40
2023-03-05T18:18:19.526Z,14.20
2023-03-05T18:20:47.492Z,13.50
2023-03-05T18:23:14.403Z,12.40
2023-03-05T18:25:41.434Z,13.50
2023-03-05T18:28:14.064Z,15.00
2023-03-05T18:30:43.306Z,12.30
2023-03-05T18:33:19.725Z,16.40
2023-03-05T18:35:49.546Z,12.20
2023-03-05T18:38:16.184Z,13.30
2023-03-05T18:40:43.747Z,13.90
2023-03-05T18:43:10.675Z,15.50
2023-03-05T18:45:37.317Z,15.30
2023-03-05T18:48:04.001Z,14.50
2023-03-05T18:50:31.143Z,14.70
2023-03-05T18:52:57.840Z,14.70
2023-03-05T18:55:28.565Z,14.80
2023-03-05T18:57:56.206Z,13.00
2023-03-05T19:00:27.064Z,17.90
2023-03-05T19:02:55.151Z,14.80
2023-03-05T19:05:22.026Z,13.70
2023-03-05T19:07:48.785Z,13.30
2023-03-05T19:10:17.604Z,12.40
2023-03-05T19:13:10.858Z,16.60
2023-03-05T19:15:40.473Z,14.20
2023-03-05T19:18:07.113Z,17.80
2023-03-05T19:20:33.643Z,17.00
2023-03-05T19:23:00.150Z,16.70
2023-03-05T19:25:26.769Z,15.70
2023-03-05T19:27:53.390Z,18.20
2023-03-05T19:30:20.376Z,13.50
2023-03-05T19:32:47.418Z,16.00
2023-03-05T19:35:17.519Z,16.60
2023-03-05T19:37:45.970Z,15.70
2023-03-05T19:40:14.316Z,14.10
2023-03-05T19:42:41.040Z,13.50
2023-03-05T19:45:08.743Z,16.40
2023-03-05T19:47:35.438Z,17.10
2023-03-05T19:50:02.227Z,17.20
2023-03-05T19:52:28.761Z,15.90
2023-03-05T19:54:55.342Z,17.30
2023-03-05T19:57:21.977Z,15.40
2023-03-05T19:59:52.879Z,16.30
2023-03-05T20:02:21.907Z,14.50
2023-03-05T20:04:49.751Z,14.10
2023-03-05T20:07:16.782Z,17.10
2023-03-05T20:09:43.684Z,15.20
2023-03-05T20:12:10.652Z,17.30
2023-03-05T20:14:37.271Z,14.90
2023-03-05T20:17:03.889Z,15.90
2023-03-05T20:19:30.521Z,17.20
2023-03-05T20:21:57.179Z,16.60
2023-03-05T20:24:23.813Z,18.00
2023-03-05T20:26:50.433Z,18.20
2023-03-05T20:29:18.805Z,18.10
2023-03-05T20:31:46.979Z,17.60
2023-03-05T20:34:18.461Z,19.20
2023-03-05T20:36:45.738Z,16.80
2023-03-05T20:39:12.577Z,19.00
2023-03-05T20:41:40.207Z,18.40
2023-03-05T20:44:08.358Z,18.80
2023-03-05T20:46:41.803Z,16.50
2023-03-05T20:49:09.774Z,17.80
2023-03-05T20:51:38.224Z,20.40
2023-03-05T20:54:08.917Z,21.80
2023-03-05T20:56:36.387Z,23.00
2023-03-05T20:59:08.556Z,22.30
2023-03-05T21:01:39.004Z,18.40
2023-03-05T21:04:07.357Z,21.80
2023-03-05T21:06:34.818Z,21.10
2023-03-05T21:09:01.591Z,20.40
2023-03-05T21:11:28.570Z,20.00
2023-03-05T21:13:55.162Z,20.50
2023-03-05T21:16:26.098Z,19.60
2023-03-05T21:18:55.973Z,18.90
2023-03-05T21:21:22.948Z,18.80
2023-03-05T21:23:49.563Z,17.20
2023-03-05T21:26:16.261Z,19.00
2023-03-05T21:28:43.060Z,20.80
2023-03-05T21:31:17.281Z,19.40
2023-03-05T21:33:44.777Z,20.70
2023-03-05T21:36:11.950Z,20.70
2023-03-05T21:38:38.636Z,20.30
2023-03-05T21:41:06.138Z,19.60
2023-03-05T21:43:32.972Z,22.60
2023-03-05T21:46:03.119Z,19.60
2023-03-05T21:48:30.603Z,20.30
2023-03-05T21:50:58.400Z,23.40
2023-03-05T21:53:26.091Z,19.00
2023-03-05T21:55:58.561Z,22.00
2023-03-05T21:58:25.141Z,21.10
2023-03-05T22:00:51.792Z,19.80
2023-03-05T22:03:19.728Z,22.30
2023-03-05T22:05:46.463Z,19.30
2023-03-05T22:08:13.071Z,17.70
2023-03-05T22:10:41.318Z,18.20
2023-03-05T22:13:10.393Z,18.30
2023-03-05T22:15:48.512Z,17.50
2023-03-05T22:18:18.661Z,16.60
2023-03-05T22:20:45.417Z,16.60
2023-03-05T22:23:13.632Z,19.00
2023-03-05T22:25:40.999Z,17.60
2023-03-05T22:28:09.443Z,16.50
2023-03-05T22:30:36.650Z,16.20
2023-03-05T22:33:03.385Z,15.90
2023-03-05T22:35:30.225Z,16.30
2023-03-05T22:37:58.275Z,17.70
2023-03-05T22:40:25.142Z,17.00
2023-03-05T22:42:51.688Z,15.60
2023-03-05T22:45:19.298Z,17.60
2023-03-05T22:47:49.064Z,18.70
2023-03-05T22:50:18.278Z,18.30
2023-03-05T22:52:44.890Z,18.90
2023-03-05T22:55:15.155Z,18.60
2023-03-05T22:57:42.685Z,16.80
2023-03-05T23:00:15.873Z,15.70
2023-03-05T23:02:43.785Z,16.40
2023-03-05T23:05:11.773Z,15.00
2023-03-05T23:07:41.406Z,15.00
2023-03-05T23:10:17.602Z,16.70
2023-03-05T23:12:53.353Z,16.70
2023-03-05T23:15:24.451Z,15.20
2023-03-05T23:17:51.144Z,13.10
2023-03-05T23:20:21.076Z,17.40
2023-03-05T23:22:48.499Z,11.70
2023-03-05T23:25:16.500Z,15.40
2023-03-05T23:27:43.841Z,15.50
2023-03-05T23:30:33.057Z,13.90
2023-03-05T23:33:04.597Z,17.50
2023-03-05T23:35:36.810Z,18.30
2023-03-05T23:38:08.364Z,17.90
2023-03-05T23:40:45.253Z,18.40
2023-03-05T23:43:12.445Z,14.00
2023-03-05T23:45:42.090Z,16.00
2023-03-05T23:48:09.205Z,15.10
2023-03-05T23:50:40.303Z,18.00
2023-03-05T23:53:07.958Z,16.60
2023-03-05T23:55:43.518Z,17.30
2023-03-05T23:58:11.470Z,15.30
